Time;durP1;ratioP1;P1;durP2;ratioP2;P2;SDS_P1;SDS_P2;PMS_P1;PMS_P2;Temp;Humidity;BMP_temperature;BMP_pressure;BME280_temperature;BME280_humidity;BME280_pressure;Samples;Min_cycle;Max_cycle;Signal;HPM_P1;HPM_P2
2024/02/24 00:00:07;;;;;;;0.10;0.10;;;;;;;0.98;100.00;97893.56;6218036;23;20012;-73
2024/02/24 00:02:33;;;;;;;0.10;0.10;;;;;;;0.88;100.00;97891.69;6219294;23;20077;-75
2024/02/24 00:04:58;;;;;;;0.10;0.10;;;;;;;0.73;100.00;97888.91;6247350;23;20427;-75
2024/02/24 00:07:24;;;;;;;0.10;0.10;;;;;;;0.60;100.00;97885.66;6220946;23;20004;-76
2024/02/24 00:09:49;;;;;;;0.10;0.10;;;;;;;0.54;100.00;97902.03;6248572;23;20020;-76
2024/02/24 00:12:15;;;;;;;0.10;0.10;;;;;;;0.44;100.00;97903.59;6220591;23;20454;-75
2024/02/24 00:14:40;;;;;;;0.10;0.10;;;;;;;0.43;100.00;97901.19;6172274;23;20004;-74
2024/02/24 00:17:06;;;;;;;0.10;0.10;;;;;;;0.50;100.00;97907.13;6193233;23;20070;-76
2024/02/24 00:19:31;;;;;;;0.10;0.10;;;;;;;0.39;100.00;97900.09;6246795;23;20023;-75
2024/02/24 00:21:59;;;;;;;0.10;0.10;;;;;;;0.41;100.00;97903.31;6169095;23;20012;-74
2024/02/24 00:24:25;;;;;;;0.10;0.10;;;;;;;0.26;100.00;97882.53;6196693;23;20008;-76
2024/02/24 00:26:50;;;;;;;0.10;0.10;;;;;;;0.30;100.00;97897.88;6216715;23;20427;-76
2024/02/24 00:29:16;;;;;;;0.10;0.10;;;;;;;0.16;100.00;97881.44;6246891;23;20016;-75
2024/02/24 00:31:50;;;;;;;0.10;0.10;;;;;;;0.07;100.00;97876.78;6220171;23;20000;-75
2024/02/24 00:34:18;;;;;;;0.10;0.10;;;;;;;0.16;100.00;97900.25;6219926;23;20000;-76
2024/02/24 00:36:44;;;;;;;0.10;0.10;;;;;;;0.07;100.00;97888.34;6196153;23;20027;-77
2024/02/24 00:39:10;;;;;;;0.10;0.10;;;;;;;0.09;100.00;97890.75;6220006;23;20397;-76
2024/02/24 00:41:35;;;;;;;0.10;0.10;;;;;;;-0.02;100.00;97879.16;6196343;23;20011;-74
2024/02/24 00:44:01;;;;;;;0.10;0.10;;;;;;;0.13;100.00;97903.44;6168163;23;20011;-76
2024/02/24 00:46:29;;;;;;;0.10;0.10;;;;;;;0.06;100.00;97885.91;6193959;23;20446;-75
2024/02/24 00:48:55;;;;;;;0.10;0.10;;;;;;;0.24;100.00;97908.88;6191522;23;20012;-74
2024/02/24 00:51:20;;;;;;;0.10;0.10;;;;;;;0.23;100.00;97912.63;6245710;23;20083;-75
2024/02/24 00:53:45;;;;;;;0.10;0.10;;;;;;;0.25;100.00;97910.47;6168346;23;20020;-75
2024/02/24 00:56:11;;;;;;;0.10;0.10;;;;;;;0.21;100.00;97914.78;6220728;23;20028;-77
2024/02/24 00:58:36;;;;;;;0.00;0.00;;;;;;;0.05;100.00;97903.94;6170546;23;19988;-77
2024/02/24 01:01:02;;;;;;;0.10;0.10;;;;;;;0.07;100.00;97909.84;6196395;23;20016;-78
2024/02/24 01:03:29;;;;;;;0.10;0.10;;;;;;;0.16;100.00;97913.69;6197400;23;20015;-76
2024/02/24 01:05:54;;;;;;;0.10;0.10;;;;;;;0.29;100.00;97919.66;6193070;23;20013;-77
2024/02/24 01:08:19;;;;;;;0.00;0.00;;;;;;;0.28;100.00;97926.13;6220660;23;20446;-76
2024/02/24 01:10:45;;;;;;;0.10;0.10;;;;;;;0.22;100.00;97916.38;6221514;23;20004;-76
2024/02/24 01:13:11;;;;;;;0.10;0.10;;;;;;;0.19;100.00;97927.66;6196207;23;20483;-76
2024/02/24 01:15:36;;;;;;;0.10;0.10;;;;;;;0.10;100.00;97924.63;6219505;23;20427;-77
2024/02/24 01:18:02;;;;;;;0.10;0.10;;;;;;;0.09;100.00;97939.97;6243525;23;20438;-76
2024/02/24 01:20:28;;;;;;;0.10;0.10;;;;;;;0.05;100.00;97932.69;6205931;23;20008;-75
2024/02/24 01:22:57;;;;;;;0.10;0.10;;;;;;;0.04;100.00;97931.06;6183609;23;20338;-77
2024/02/24 01:25:23;;;;;;;0.10;0.10;;;;;;;-0.04;100.00;97935.84;6232581;23;20007;-77
2024/02/24 01:27:49;;;;;;;0.10;0.10;;;;;;;-0.07;100.00;97930.19;6207543;23;20342;-74
2024/02/24 01:30:15;;;;;;;0.10;0.10;;;;;;;-0.08;100.00;97929.34;6201633;23;20396;-76
2024/02/24 01:32:41;;;;;;;0.10;0.10;;;;;;;-0.06;100.00;97937.16;6221559;23;20004;-75
2024/02/24 01:35:10;;;;;;;0.10;0.10;;;;;;;-0.11;100.00;97935.25;6196925;23;20016;-77
2024/02/24 01:37:36;;;;;;;0.10;0.10;;;;;;;-0.20;100.00;97926.84;6199636;23;20493;-75
2024/02/24 01:40:03;;;;;;;0.10;0.10;;;;;;;-0.27;100.00;97937.00;6248036;23;20000;-76
2024/02/24 01:42:29;;;;;;;0.10;0.10;;;;;;;-0.31;100.00;97945.84;6199436;23;20015;-77
2024/02/24 01:44:54;;;;;;;0.10;0.10;;;;;;;-0.38;100.00;97941.50;6221322;23;19994;-77
2024/02/24 01:47:20;;;;;;;0.10;0.10;;;;;;;-0.49;100.00;97929.03;6219889;23;20494;-76
2024/02/24 01:49:46;;;;;;;0.10;0.10;;;;;;;-0.49;100.00;97928.22;6188317;23;20411;-70
2024/02/24 01:52:12;;;;;;;0.10;0.10;;;;;;;-0.52;100.00;97934.13;6242671;23;20008;-72
2024/02/24 01:54:38;;;;;;;0.10;0.10;;;;;;;-0.56;100.00;97923.06;6166167;23;20027;-71
2024/02/24 01:57:04;;;;;;;0.10;0.10;;;;;;;-0.57;100.00;97933.00;6212186;23;20043;-71
2024/02/24 01:59:32;;;;;;;0.10;0.10;;;;;;;-0.51;100.00;97925.81;6215532;23;20008;-71
2024/02/24 02:01:57;;;;;;;0.10;0.10;;;;;;;-0.49;100.00;97922.88;6214203;23;20000;-72
2024/02/24 02:04:25;;;;;;;0.10;0.10;;;;;;;-0.56;100.00;97921.19;6163075;23;20012;-74
2024/02/24 02:06:50;;;;;;;0.10;0.10;;;;;;;-0.59;100.00;97921.69;6165589;23;20145;-72
2024/02/24 02:09:16;;;;;;;0.10;0.10;;;;;;;-0.68;100.00;97925.91;6239196;23;20044;-71
2024/02/24 02:11:43;;;;;;;0.10;0.10;;;;;;;-0.70;100.00;97930.72;6216523;23;20004;-73
2024/02/24 02:14:11;;;;;;;0.10;0.10;;;;;;;-0.71;100.00;97926.41;6165211;23;20934;-71
2024/02/24 02:16:37;;;;;;;0.10;0.10;;;;;;;-0.68;100.00;97933.97;6167527;23;20008;-73
2024/02/24 02:19:03;;;;;;;0.10;0.10;;;;;;;-0.63;100.00;97936.69;6167418;23;20012;-73
2024/02/24 02:21:31;;;;;;;0.10;0.10;;;;;;;-0.66;100.00;97929.13;6190600;23;20043;-71
2024/02/24 02:23:57;;;;;;;0.10;0.10;;;;;;;-0.66;100.00;97929.13;6165122;23;20011;-70
2024/02/24 02:26:23;;;;;;;0.10;0.10;;;;;;;-0.71;100.00;97939.84;6192388;23;20525;-70
2024/02/24 02:28:48;;;;;;;0.10;0.10;;;;;;;-0.70;100.00;97944.16;6241638;23;20320;-72
2024/02/24 02:31:14;;;;;;;0.10;0.10;;;;;;;-0.66;100.00;97937.19;6192053;23;20007;-72
2024/02/24 02:33:40;;;;;;;0.10;0.10;;;;;;;-0.72;100.00;97941.69;6215821;23;20004;-73
2024/02/24 02:36:06;;;;;;;0.10;0.10;;;;;;;-0.75;100.00;97944.88;6192912;23;20075;-73
2024/02/24 02:38:31;;;;;;;0.10;0.10;;;;;;;-0.69;100.00;97943.06;6214013;23;20000;-74
2024/02/24 02:40:57;;;;;;;0.10;0.10;;;;;;;-0.65;100.00;97957.59;6218404;23;20011;-72
2024/02/24 02:43:22;;;;;;;0.10;0.10;;;;;;;-0.58;100.00;97963.59;6166049;23;20016;-73
2024/02/24 02:45:48;;;;;;;0.10;0.10;;;;;;;-0.57;100.00;97959.84;6189798;23;20304;-72
2024/02/24 02:48:13;;;;;;;0.10;0.10;;;;;;;-0.50;100.00;97959.63;6216468;23;20004;-73
2024/02/24 02:50:41;;;;;;;0.10;0.10;;;;;;;-0.49;100.00;97953.19;6168057;23;20454;-72
2024/02/24 02:53:06;;;;;;;0.10;0.10;;;;;;;-0.37;100.00;97942.28;6218984;23;20010;-73
2024/02/24 02:55:45;;;;;;;0.10;0.10;;;;;;;-0.19;100.00;97947.28;6242664;23;20119;-73
2024/02/24 02:58:11;;;;;;;0.10;0.10;;;;;;;-0.05;100.00;97958.41;6218421;23;20011;-73
2024/02/24 03:00:48;;;;;;;0.10;0.10;;;;;;;-0.01;100.00;97956.81;6193120;23;20019;-72
2024/02/24 03:03:21;;;;;;;0.10;0.10;;;;;;;0.20;100.00;97966.91;6241759;23;20008;-73
2024/02/24 03:05:46;;;;;;;0.10;0.10;;;;;;;0.21;100.00;97960.47;6217738;23;20431;-73
2024/02/24 03:08:12;;;;;;;0.10;0.10;;;;;;;0.30;100.00;97966.97;6216533;23;20004;-73
2024/02/24 03:10:37;;;;;;;0.10;0.10;;;;;;;0.21;100.00;97957.78;6165743;23;20008;-73
2024/02/24 03:13:03;;;;;;;0.10;0.10;;;;;;;0.17;100.00;97963.66;6216137;23;20008;-73
2024/02/24 03:15:28;;;;;;;0.10;0.10;;;;;;;0.13;100.00;97972.50;6168073;23;20142;-73
2024/02/24 03:17:54;;;;;;;0.10;0.10;;;;;;;-0.11;100.00;97940.63;6213009;23;20004;-73
2024/02/24 03:20:19;;;;;;;0.10;0.10;;;;;;;-0.03;100.00;97961.66;6217014;23;20074;-73
2024/02/24 03:22:45;;;;;;;0.10;0.10;;;;;;;-0.08;100.00;97966.16;6216540;23;19996;-72
2024/02/24 03:25:13;;;;;;;0.10;0.10;;;;;;;-0.06;100.00;97961.34;6189994;23;20004;-72
2024/02/24 03:27:38;;;;;;;0.10;0.10;;;;;;;-0.02;100.00;97975.88;6217749;23;19997;-71
2024/02/24 03:30:04;;;;;;;0.10;0.10;;;;;;;-0.12;100.00;97959.69;6211944;23;20004;-71
2024/02/24 03:32:29;;;;;;;0.10;0.10;;;;;;;-0.14;100.00;97972.56;6165219;23;20062;-72
2024/02/24 03:34:55;;;;;;;0.10;0.10;;;;;;;-0.13;100.00;97971.50;6216487;23;20035;-72
2024/02/24 03:37:20;;;;;;;0.10;0.10;;;;;;;-0.22;100.00;97958.56;6215874;23;20055;-71
2024/02/24 03:39:46;;;;;;;0.10;0.10;;;;;;;-0.17;100.00;97968.53;6220523;23;20008;-72
2024/02/24 03:42:11;;;;;;;0.10;0.10;;;;;;;-0.10;100.00;97968.28;6189247;23;20012;-71
2024/02/24 03:44:36;;;;;;;0.10;0.10;;;;;;;-0.08;100.00;97963.47;6164613;23;20111;-72
2024/02/24 03:47:02;;;;;;;0.10;0.10;;;;;;;0.00;100.00;97963.03;6189405;23;20377;-71
2024/02/24 03:49:27;;;;;;;0.10;0.10;;;;;;;-0.04;100.00;97951.16;6164535;23;20008;-71
2024/02/24 03:51:53;;;;;;;0.10;0.10;;;;;;;-0.10;100.00;97954.84;6190761;23;20333;-72
2024/02/24 03:54:18;;;;;;;0.10;0.10;;;;;;;-0.15;100.00;97958.31;6166116;23;20334;-72
2024/02/24 03:56:44;;;;;;;0.10;0.10;;;;;;;-0.23;100.00;97954.22;6165290;23;20066;-71
2024/02/24 03:59:09;;;;;;;0.10;0.10;;;;;;;-0.16;100.00;97958.56;6164166;23;20003;-71
2024/02/24 04:01:34;;;;;;;0.10;0.10;;;;;;;-0.18;100.00;97966.88;6192006;23;20004;-71
2024/02/24 04:04:00;;;;;;;0.10;0.10;;;;;;;-0.23;100.00;97970.34;6163700;23;20034;-72
2024/02/24 04:06:25;;;;;;;0.10;0.10;;;;;;;-0.25;100.00;97972.50;6166178;23;20000;-71
2024/02/24 04:08:53;;;;;;;0.10;0.10;;;;;;;-0.28;100.00;97978.34;6216258;23;20024;-72
2024/02/24 04:11:18;;;;;;;0.10;0.10;;;;;;;-0.25;100.00;97972.50;6191650;23;20037;-71
2024/02/24 04:13:44;;;;;;;0.10;0.10;;;;;;;-0.26;100.00;97976.25;6192369;23;20012;-71
2024/02/24 04:16:09;;;;;;;0.10;0.10;;;;;;;-0.27;100.00;97973.81;6190221;23;20036;-71
2024/02/24 04:18:35;;;;;;;0.00;0.00;;;;;;;-0.30;100.00;97975.13;6190275;23;20008;-72
2024/02/24 04:21:00;;;;;;;0.10;0.10;;;;;;;-0.29;100.00;97981.28;6217954;23;20015;-71
2024/02/24 04:23:25;;;;;;;0.10;0.10;;;;;;;-0.30;100.00;97980.50;6212095;23;20008;-71
2024/02/24 04:25:51;;;;;;;0.10;0.10;;;;;;;-0.26;100.00;97991.56;6193795;23;20032;-72
2024/02/24 04:28:16;;;;;;;0.10;0.10;;;;;;;-0.24;100.00;97995.59;6189641;23;20431;-73
2024/02/24 04:30:42;;;;;;;0.10;0.10;;;;;;;-0.27;100.00;97995.28;6190258;23;20027;-71
2024/02/24 04:33:07;;;;;;;0.10;0.10;;;;;;;-0.25;100.00;98007.41;6169005;23;20091;-72
2024/02/24 04:35:33;;;;;;;0.10;0.10;;;;;;;-0.21;100.00;98002.31;6192485;23;20019;-72
2024/02/24 04:37:58;;;;;;;0.10;0.10;;;;;;;-0.14;100.00;98011.00;6190298;23;20012;-71
2024/02/24 04:40:24;;;;;;;0.10;0.10;;;;;;;-0.08;100.00;98017.22;6215795;23;20065;-73
2024/02/24 04:42:49;;;;;;;0.10;0.10;;;;;;;-0.20;100.00;98007.44;6190784;23;20012;-73
2024/02/24 04:45:15;;;;;;;0.10;0.10;;;;;;;-0.27;100.00;98006.84;6166387;23;20431;-72
2024/02/24 04:47:40;;;;;;;0.10;0.10;;;;;;;-0.34;100.00;98011.59;6190332;23;20015;-73
2024/02/24 04:50:06;;;;;;;0.10;0.10;;;;;;;-0.43;100.00;98010.44;6217040;23;20008;-72
2024/02/24 04:52:31;;;;;;;0.10;0.10;;;;;;;-0.50;100.00;98007.16;6167726;23;20060;-72
2024/02/24 04:54:57;;;;;;;0.10;0.10;;;;;;;-0.60;100.00;98014.03;6190672;23;20036;-72
2024/02/24 04:57:26;;;;;;;0.10;0.10;;;;;;;-0.57;100.00;98018.06;6219072;23;20028;-71
2024/02/24 04:59:52;;;;;;;0.10;0.10;;;;;;;-0.51;100.00;98021.63;6215781;23;20004;-71
2024/02/24 05:02:25;;;;;;;0.10;0.10;;;;;;;-0.51;100.00;98017.09;6192603;23;20015;-72
2024/02/24 05:04:52;;;;;;;0.10;0.10;;;;;;;-0.52;100.00;98022.72;6242287;23;20004;-72
2024/02/24 05:07:17;;;;;;;0.10;0.10;;;;;;;-0.64;100.00;98018.28;6218483;23;20008;-72
2024/02/24 05:09:43;;;;;;;0.10;0.10;;;;;;;-0.72;100.00;98018.72;6187893;23;20024;-72
2024/02/24 05:12:08;;;;;;;0.10;0.10;;;;;;;-0.76;100.00;98025.66;6193011;23;20064;-73
2024/02/24 05:14:37;;;;;;;0.10;0.10;;;;;;;-0.81;100.00;98028.28;6192664;23;20122;-74
2024/02/24 05:17:03;;;;;;;0.10;0.10;;;;;;;-0.91;100.00;98021.72;6243462;23;20008;-73
2024/02/24 05:19:29;;;;;;;0.10;0.10;;;;;;;-0.86;100.00;98030.91;6165965;23;20044;-73
2024/02/24 05:21:55;;;;;;;0.10;0.10;;;;;;;-0.86;100.00;98026.38;6241022;23;20014;-73
2024/02/24 05:24:21;;;;;;;0.10;0.10;;;;;;;-0.80;100.00;98024.56;6194956;23;20027;-72
2024/02/24 05:26:46;;;;;;;0.10;0.10;;;;;;;-0.86;100.00;98025.53;6238841;23;20008;-73
2024/02/24 05:29:11;;;;;;;0.10;0.10;;;;;;;-0.88;100.00;98034.66;6193862;23;20016;-72
2024/02/24 05:31:37;;;;;;;0.10;0.10;;;;;;;-0.96;100.00;98026.25;6165741;23;20450;-73
2024/02/24 05:34:02;;;;;;;0.10;0.10;;;;;;;-1.06;100.00;98022.34;6193610;23;20014;-73
2024/02/24 05:36:28;;;;;;;0.10;0.10;;;;;;;-1.02;100.00;98033.41;6165097;23;20035;-72
2024/02/24 05:38:53;;;;;;;0.10;0.10;;;;;;;-1.00;100.00;98031.28;6190934;23;20012;-73
2024/02/24 05:41:19;;;;;;;0.10;0.10;;;;;;;-1.13;100.00;98010.19;6245930;23;20000;-72
2024/02/24 05:43:44;;;;;;;0.10;0.10;;;;;;;-0.99;100.00;98043.66;6243386;23;20009;-72
2024/02/24 05:46:09;;;;;;;0.10;0.10;;;;;;;-0.97;100.00;98048.75;6167575;23;19998;-73
2024/02/24 05:48:36;;;;;;;0.10;0.10;;;;;;;-0.99;100.00;98053.53;6218051;23;20014;-73
2024/02/24 05:51:04;;;;;;;0.10;0.10;;;;;;;-1.03;100.00;98052.44;6218378;23;20013;-73
2024/02/24 05:53:29;;;;;;;0.10;0.10;;;;;;;-1.03;100.00;98047.88;6245007;23;20004;-74
2024/02/24 05:55:55;;;;;;;0.10;0.10;;;;;;;-1.05;100.00;98047.31;6217477;23;20327;-73
2024/02/24 05:58:21;;;;;;;0.10;0.10;;;;;;;-1.10;100.00;98041.88;6171985;23;20023;-74
2024/02/24 06:00:47;;;;;;;0.10;0.10;;;;;;;-1.13;100.00;98031.66;6192058;23;19992;-72
2024/02/24 06:03:12;;;;;;;0.10;0.10;;;;;;;-1.16;100.00;98029.47;6168908;23;20022;-73
2024/02/24 06:05:38;;;;;;;0.10;0.10;;;;;;;-1.16;100.00;98034.84;6193908;23;20001;-71
2024/02/24 06:08:05;;;;;;;0.10;0.10;;;;;;;-1.18;100.00;98037.75;6216085;23;20065;-72
2024/02/24 06:10:30;;;;;;;0.10;0.10;;;;;;;-1.19;100.00;98038.00;6194394;23;20113;-72
2024/02/24 06:12:56;;;;;;;0.10;0.10;;;;;;;-1.23;100.00;98032.31;6190395;23;20008;-72
2024/02/24 06:15:22;;;;;;;0.10;0.10;;;;;;;-1.19;100.00;98046.06;6217975;23;20004;-71
2024/02/24 06:17:47;;;;;;;0.00;0.00;;;;;;;-1.24;100.00;98031.53;6217753;23;20017;-71
2024/02/24 06:20:13;;;;;;;0.10;0.10;;;;;;;-1.21;100.00;98029.38;6193737;23;20012;-71
2024/02/24 06:22:40;;;;;;;0.10;0.10;;;;;;;-1.29;100.00;98020.72;6219315;23;20053;-72
2024/02/24 06:25:06;;;;;;;0.10;0.10;;;;;;;-1.18;100.00;98036.94;6214760;23;20524;-72
2024/02/24 06:27:31;;;;;;;0.10;0.10;;;;;;;-1.15;100.00;98041.84;6168938;23;20062;-72
2024/02/24 06:30:03;;;;;;;0.10;0.10;;;;;;;-1.19;100.00;98029.97;6187507;23;20020;-71
2024/02/24 06:32:29;;;;;;;0.10;0.10;;;;;;;-1.16;100.00;98040.19;6169837;23;20434;-72
2024/02/24 06:34:54;;;;;;;0.10;0.10;;;;;;;-1.21;100.00;98035.59;6164409;23;20015;-72
2024/02/24 06:37:20;;;;;;;0.10;0.10;;;;;;;-1.23;100.00;98027.78;6192315;23;20435;-73
2024/02/24 06:39:48;;;;;;;0.10;0.10;;;;;;;-1.23;100.00;98027.78;6166291;23;20347;-72
2024/02/24 06:42:13;;;;;;;0.10;0.10;;;;;;;-1.19;100.00;98032.66;6191862;23;20011;-72
2024/02/24 06:44:39;;;;;;;0.10;0.10;;;;;;;-1.20;100.00;98033.69;6219913;23;20016;-72
2024/02/24 06:47:05;;;;;;;0.10;0.10;;;;;;;-1.13;100.00;98042.38;6242884;23;20011;-71
2024/02/24 06:49:31;;;;;;;0.10;0.10;;;;;;;-1.27;100.00;98021.28;6217887;23;20008;-71
2024/02/24 06:51:56;;;;;;;0.10;0.10;;;;;;;-1.03;100.00;98053.25;6244779;23;20387;-72
2024/02/24 06:54:24;;;;;;;0.10;0.10;;;;;;;-1.08;100.00;98039.75;6189605;23;20019;-73
2024/02/24 06:56:52;;;;;;;0.10;0.10;;;;;;;-0.98;100.00;98047.97;6244978;23;20070;-72
2024/02/24 06:59:18;;;;;;;0.10;0.10;;;;;;;-0.92;100.00;98055.00;6215363;23;20014;-71
2024/02/24 07:01:44;;;;;;;0.10;0.10;;;;;;;-0.98;100.00;98033.72;6242523;23;20031;-72
2024/02/24 07:04:09;;;;;;;0.10;0.10;;;;;;;-0.78;100.00;98054.63;6243094;23;20023;-71
2024/02/24 07:06:35;;;;;;;0.10;0.10;;;;;;;-0.68;100.00;98059.31;6241946;23;20055;-71
2024/02/24 07:09:01;;;;;;;0.10;0.10;;;;;;;-0.59;100.00;98044.38;6169660;23;20025;-71
2024/02/24 07:11:26;;;;;;;0.10;0.10;;;;;;;-0.43;100.00;98056.09;6158378;23;20048;-71
2024/02/24 07:13:52;;;;;;;0.10;0.10;;;;;;;-0.34;100.00;98051.09;6135564;23;20328;-71
2024/02/24 07:16:18;;;;;;;0.00;0.00;;;;;;;-0.16;100.00;98060.66;6130395;23;20005;-72
2024/02/24 07:18:46;;;;;;;0.10;0.10;;;;;;;-0.06;100.00;98066.13;6160086;23;20056;-71
2024/02/24 07:21:11;;;;;;;0.10;0.10;;;;;;;0.07;100.00;98068.41;6182781;23;20408;-72
2024/02/24 07:23:37;;;;;;;0.10;0.10;;;;;;;0.20;100.00;98071.75;6134548;23;20013;-71
2024/02/24 07:26:05;;;;;;;0.10;0.10;;;;;;;0.33;100.00;98079.38;6182068;23;20033;-72
2024/02/24 07:29:13;;;;;;;0.10;0.10;;;;;;;0.40;100.00;98069.22;6180627;23;20319;-71
2024/02/24 07:31:19;;;;;;;0.10;0.10;;;;;;;0.62;100.00;98081.75;6168629;23;20434;-73
2024/02/24 07:33:45;;;;;;;0.10;0.10;;;;;;;0.68;100.00;98080.72;6155642;23;20116;-70
2024/02/24 07:36:11;;;;;;;0.10;0.10;;;;;;;0.77;100.00;98081.84;6184028;23;20062;-70
2024/02/24 07:38:48;;;;;;;0.00;0.00;;;;;;;0.87;100.00;98089.97;6152882;23;20020;-72
2024/02/24 07:41:13;;;;;;;0.10;0.10;;;;;;;0.93;100.00;98090.81;6181557;23;20017;-71
2024/02/24 07:43:39;;;;;;;0.10;0.10;;;;;;;1.00;100.00;98093.28;6180947;23;20012;-70
2024/02/24 07:46:04;;;;;;;0.10;0.10;;;;;;;1.14;100.00;98097.13;6156114;23;20297;-71
2024/02/24 07:48:30;;;;;;;0.00;0.00;;;;;;;1.28;100.00;98104.75;6154565;23;20009;-70
2024/02/24 07:50:59;;;;;;;0.10;0.10;;;;;;;1.34;100.00;98104.50;6130771;23;20064;-70
2024/02/24 07:58:35;;;;;;;0.05;0.05;;;;;;;1.69;100.00;98121.06;6198334;22;20024;-70
2024/02/24 08:01:01;;;;;;;0.10;0.10;;;;;;;1.64;100.00;98097.63;6214357;23;20016;-69
2024/02/24 08:03:27;;;;;;;0.10;0.10;;;;;;;1.87;100.00;98117.91;6244568;23;20343;-70
2024/02/24 08:05:52;;;;;;;0.10;0.10;;;;;;;1.99;100.00;98124.94;6208985;23;20008;-70
2024/02/24 08:08:20;;;;;;;0.10;0.10;;;;;;;1.99;100.00;98117.66;6218674;23;20027;-70
2024/02/24 08:10:45;;;;;;;0.10;0.10;;;;;;;2.05;100.00;98131.97;6191652;23;20011;-71
2024/02/24 08:13:10;;;;;;;0.10;0.10;;;;;;;2.06;100.00;98138.97;6190798;23;20016;-70
2024/02/24 08:15:36;;;;;;;0.10;0.10;;;;;;;2.09;100.00;98122.25;6214047;23;20027;-71
2024/02/24 08:18:02;;;;;;;0.10;0.10;;;;;;;2.32;100.00;98128.22;6189800;23;20012;-71
2024/02/24 08:20:27;;;;;;;0.10;0.10;;;;;;;2.51;100.00;98129.31;6212417;23;20004;-70
2024/02/24 08:22:52;;;;;;;0.10;0.10;;;;;;;2.69;100.00;98133.38;6212016;23;20094;-71
2024/02/24 08:25:19;;;;;;;0.10;0.10;;;;;;;2.84;100.00;98129.84;6243861;23;20027;-70
2024/02/24 08:27:44;;;;;;;0.10;0.10;;;;;;;2.94;100.00;98127.13;6240940;23;20015;-72
2024/02/24 08:30:10;;;;;;;0.10;0.10;;;;;;;3.07;100.00;98138.47;6217093;23;20054;-72
2024/02/24 08:32:36;;;;;;;0.10;0.10;;;;;;;3.17;100.00;98127.66;6193959;23;20015;-72
2024/02/24 08:35:01;;;;;;;0.10;0.10;;;;;;;3.22;100.00;98124.91;6190635;23;20016;-74
2024/02/24 08:37:29;;;;;;;0.10;0.10;;;;;;;3.35;100.00;98134.34;6218749;23;20468;-71
2024/02/24 08:39:54;;;;;;;0.10;0.10;;;;;;;3.31;100.00;98123.28;6215876;23;20011;-72
2024/02/24 08:42:20;;;;;;;0.10;0.10;;;;;;;3.54;100.00;98137.25;6242940;23;20729;-72
2024/02/24 08:44:45;;;;;;;0.10;0.10;;;;;;;3.58;100.00;98108.59;6192996;23;20011;-72
2024/02/24 08:47:10;;;;;;;0.10;0.10;;;;;;;3.79;100.00;98122.81;6244247;23;20437;-73
2024/02/24 08:49:36;;;;;;;0.00;0.00;;;;;;;3.91;100.00;98129.78;6218776;23;20008;-73
2024/02/24 08:52:01;;;;;;;0.10;0.10;;;;;;;4.07;100.00;98134.03;6244610;23;20004;-72
2024/02/24 08:54:27;;;;;;;0.10;0.10;;;;;;;4.27;100.00;98143.13;6189741;23;20008;-73
2024/02/24 08:56:52;;;;;;;0.10;0.10;;;;;;;4.56;100.00;98145.91;6219660;23;20016;-72
2024/02/24 08:59:18;;;;;;;0.10;0.10;;;;;;;4.86;100.00;98133.19;6211938;23;20889;-72
2024/02/24 09:01:52;;;;;;;0.00;0.00;;;;;;;5.18;100.00;98134.53;6192933;23;20016;-73
2024/02/24 09:04:18;;;;;;;0.00;0.00;;;;;;;5.55;100.00;98155.53;6214874;23;20031;-71
2024/02/24 09:06:43;;;;;;;0.10;0.10;;;;;;;5.63;100.00;98151.38;6217532;23;20012;-70
2024/02/24 09:09:19;;;;;;;;;;;;;;;;;;;;;
2024/02/24 09:11:46;;;;;;;0.00;0.00;;;;;;;7.78;100.00;98157.28;6241673;23;20079;-73
2024/02/24 09:14:13;;;;;;;0.00;0.00;;;;;;;8.93;100.00;98140.06;6243237;23;19996;-73
2024/02/24 09:16:41;;;;;;;0.10;0.10;;;;;;;9.17;100.00;98162.34;6212856;23;20012;-74
2024/02/24 09:19:39;;;;;;;;;;;;;;;;;;;;;
2024/02/24 09:22:19;;;;;;;;;;;;;;;;;;;;;
2024/02/24 09:24:45;;;;;;;0.10;0.10;;;;;;;9.54;100.00;98160.25;6240899;23;20083;-73
2024/02/24 09:27:20;;;;;;;0.10;0.10;;;;;;;10.67;100.00;98163.59;6219563;23;20103;-77
2024/02/24 09:33:49;;;;;;;0.10;0.10;;;;;;;15.30;92.56;98180.56;6246037;23;20064;-74
2024/02/24 09:36:25;;;;;;;;;;;;;;;;;;;;;
2024/02/24 09:38:51;;;;;;;0.00;0.00;;;;;;;20.17;61.82;98162.09;6245943;23;20035;-75
2024/02/24 09:41:18;;;;;;;0.00;0.00;;;;;;;19.96;60.66;98182.13;6219936;23;20003;-73
2024/02/24 09:43:46;;;;;;;0.10;0.10;;;;;;;18.79;63.62;98159.09;6217262;23;20099;-75
2024/02/24 09:46:33;;;;;;;0.00;0.00;;;;;;;16.81;69.18;98142.78;6218831;23;20000;-75
2024/02/24 09:49:16;;;;;;;;;;;;;;;;;;;;;
2024/02/24 09:52:00;;;;;;;0.00;0.00;;;;;;;13.71;82.26;98131.91;6222545;23;20083;-76
2024/02/24 09:54:27;;;;;;;0.00;0.00;;;;;;;12.93;87.61;98164.50;6242663;23;20004;-76
2024/02/24 09:57:02;;;;;;;0.00;0.00;;;;;;;12.15;93.19;98163.16;6246524;23;20000;-74
2024/02/24 09:59:35;;;;;;;0.00;0.00;;;;;;;11.66;97.57;98162.72;6166319;22;20032;-73
2024/02/24 10:02:01;;;;;;;0.10;0.10;;;;;;;11.22;100.00;98149.19;6166755;23;20497;-74
2024/02/24 10:04:29;;;;;;;0.00;0.00;;;;;;;10.95;100.00;98172.25;6160143;23;20262;-75
2024/02/24 10:06:57;;;;;;;0.00;0.00;;;;;;;10.68;100.00;98181.59;6190382;23;20507;-76
2024/02/24 10:09:23;;;;;;;0.00;0.00;;;;;;;10.73;100.00;98175.97;6186720;23;20008;-76
2024/02/24 10:11:56;;;;;;;0.00;0.00;;;;;;;10.92;100.00;98178.34;6190409;23;20086;-74
2024/02/24 10:14:22;;;;;;;0.00;0.00;;;;;;;11.08;100.00;98170.47;6188274;23;20035;-73
2024/02/24 10:16:52;;;;;;;0.00;0.00;;;;;;;11.23;100.00;98183.63;6164302;23;20049;-76
2024/02/24 10:19:17;;;;;;;0.00;0.00;;;;;;;11.67;100.00;98198.00;6186486;23;20015;-73
2024/02/24 10:21:43;;;;;;;0.10;0.10;;;;;;;12.20;100.00;98159.44;6213959;23;20027;-74
2024/02/24 10:24:11;;;;;;;0.10;0.10;;;;;;;13.34;99.63;98178.50;6189433;23;20112;-75
2024/02/24 10:26:38;;;;;;;0.00;0.00;;;;;;;14.71;95.15;98177.38;6182389;23;20085;-75
2024/02/24 10:29:22;;;;;;;0.00;0.00;;;;;;;16.66;85.89;98176.75;6191283;23;20035;-75
2024/02/24 10:31:48;;;;;;;0.00;0.00;;;;;;;17.27;78.67;98178.84;6189807;23;20013;-74
2024/02/24 10:34:25;;;;;;;;;;;;;;;;;;;;;
2024/02/24 10:36:51;;;;;;;0.00;0.00;;;;;;;17.08;78.78;98187.13;6216119;23;20076;-74
2024/02/24 10:39:34;;;;;;;0.00;0.00;;;;;;;18.04;76.86;98208.63;6192783;23;20000;-75
2024/02/24 10:42:31;;;;;;;0.00;0.00;;;;;;;17.84;73.55;98196.78;6214310;23;20466;-75
2024/02/24 10:44:57;;;;;;;0.00;0.00;;;;;;;16.54;72.36;98202.53;6191223;23;19996;-74
2024/02/24 10:48:02;;;;;;;;;;;;;;;;;;;;;
2024/02/24 10:50:39;;;;;;;0.00;0.00;;;;;;;14.29;79.96;98177.66;6216964;23;20036;-75
2024/02/24 10:53:06;;;;;;;0.00;0.00;;;;;;;13.81;83.32;98201.25;6191870;23;20063;-77
2024/02/24 10:55:37;;;;;;;0.00;0.00;;;;;;;13.71;86.39;98214.28;6189868;23;20073;-76
2024/02/24 10:58:05;;;;;;;0.10;0.10;;;;;;;13.63;87.34;98206.94;6195175;23;20024;-76
2024/02/24 11:00:32;;;;;;;0.10;0.10;;;;;;;14.08;87.30;98208.81;6220280;23;20004;-75
2024/02/24 11:02:59;;;;;;;0.00;0.00;;;;;;;14.80;86.62;98224.78;6243593;23;20011;-75
2024/02/24 11:05:28;;;;;;;0.00;0.00;;;;;;;15.34;85.00;98217.25;6220818;23;20000;-74
2024/02/24 11:07:53;;;;;;;0.00;0.00;;;;;;;16.19;83.37;98242.72;6214932;23;20041;-74
2024/02/24 11:11:01;;;;;;;;;;;;;;;;;;;;;
2024/02/24 11:13:58;;;;;;;0.00;0.00;;;;;;;18.09;76.47;98247.81;6233060;23;20091;-73
2024/02/24 11:16:27;;;;;;;0.00;0.00;;;;;;;18.22;73.87;98250.38;6215026;23;20008;-73
2024/02/24 11:19:10;;;;;;;0.00;0.00;;;;;;;17.91;71.46;98244.75;6196156;23;20012;-74
2024/02/24 11:22:00;;;;;;;0.00;0.00;;;;;;;17.69;72.05;98253.78;6195987;23;20020;-74
2024/02/24 11:24:38;;;;;;;0.00;0.00;;;;;;;17.84;69.87;98255.63;6217116;23;20027;-73
2024/02/24 11:27:10;;;;;;;0.00;0.00;;;;;;;18.14;62.48;98246.72;6244323;23;20003;-74
2024/02/24 11:29:38;;;;;;;0.00;0.00;;;;;;;20.00;63.33;98247.53;6220229;23;20059;-73
2024/02/24 11:32:16;;;;;;;0.00;0.00;;;;;;;22.59;57.68;98233.13;6214045;23;20040;-72
2024/02/24 11:34:55;;;;;;;0.00;0.00;;;;;;;23.21;55.48;98219.84;6220709;23;20688;-73
2024/02/24 11:37:21;;;;;;;0.00;0.00;;;;;;;23.39;54.95;98223.31;6245703;23;19996;-72
2024/02/24 11:39:56;;;;;;;0.00;0.00;;;;;;;25.72;52.50;98215.97;6220218;23;20000;-75
2024/02/24 11:53:31;;;;;;;;;;;;;;;;;;;;;
2024/02/24 11:55:57;;;;;;;0.00;0.00;;;;;;;40.82;29.92;98190.75;6244299;23;20275;-75
2024/02/24 11:58:38;;;;;;;;;;;;;;;;;;;;;
2024/02/24 12:04:27;;;;;;;0.00;0.00;;;;;;;37.99;35.68;98210.47;6241937;23;20540;-72
2024/02/24 12:06:53;;;;;;;0.00;0.00;;;;;;;37.49;37.29;98231.59;6245355;23;20000;-74